首页
METAR-TAF:

METAR-TAF

机场 :

Knock, 爱尔兰

纬度: 53-54-37N, 经度: 008-49-05W, 海拔: 203米

当前天气观测

该预报发布于5小时和54分钟前的19:30 UTC
风速11节,风向,在东南南转西南之间变化
温度 8°C
湿度 81%
气压 997 hPa
能见度10公里或以上
散云层高于2000英尺, 积雨云.
散云层高于2500英尺
多云层高于3800英尺

METAR: EIKN 161930Z 17011KT 140V210 9999 SCT020CB SCT025 BKN038 08/05 Q0997 NOSIG

时间: 02:24 (01:24 UTC)

预报

该预报发布于2小时和24分钟前的23:00 UTC
预报有效从17日的 00点(UTC)到 17日的 24点(UTC)
风速13节,风向
能见度10公里或以上
少量云层高于4000英尺
短暂存在
从 17日的 00点(UTC)到 17日的 06点(UTC)
风速15节,风向南转南东,有时为26节阵风
短暂存在
从 17日的 00点(UTC)到 17日的 05点(UTC)
散云层高于2000英尺, 积雨云.
小阵雨
短暂存在
从 17日的 05点(UTC)到 17日的 21点(UTC)
能見度: 4000
多云层高于1000英尺
散云层高于1800英尺, 积雨云.
阵雨
几率 40% :
短暂存在
从 17日的 05点(UTC)到 17日的 11点(UTC)
多云层高于600英尺
多云层高于1800英尺, 积雨云.
短暂存在
从 17日的 21点(UTC)到 17日的 24点(UTC)
能見度: 3000
多云层高于600英尺
多云层高于1800英尺, 积雨云.
阵雨

TAF: EIKN 162300Z 1700/1724 17013KT 9999 FEW040 TEMPO 1700/1706 16015G26KT TEMPO 1700/1705 -SHRA SCT020CB TEMPO 1705/1721 4000 SHRA BKN010 SCT018CB PROB40 TEMPO 1705/1711 BKN006 BKN018CB TEMPO 1721/1724 3000 SHRA BKN006 BKN018CB

超过4000个机场的气象观测和天气预报(METAR&TAF报告)。

可查询的气象台以黄色和红色小点在地图上表示。

将鼠标移到小点上方,可查看气象台名称。

然后点击查看天气观测和预报。

如需切换地图:点击带黑十字的绿色按钮放大地图;点击带横线的绿色按钮缩小地图;或者点击绿色箭头查看邻近地区的地图。


METAR-TAF: